Time;durP1;ratioP1;P1;durP2;ratioP2;P2;SDS_P1;SDS_P2;PMS_P1;PMS_P2;Temp;Humidity;BMP_temperature;BMP_pressure;BME280_temperature;BME280_humidity;BME280_pressure;Samples;Min_cycle;Max_cycle;Signal;HPM_P1;HPM_P2
2021/03/30 00:00:12;;;;;;;9.52;7.18;;;9.30;58.20;;;;;;5016574;28;20543;-58
2021/03/30 00:02:38;;;;;;;10.27;6.57;;;9.30;58.30;;;;;;5025869;28;20029;-55
2021/03/30 00:05:05;;;;;;;11.38;6.93;;;9.30;58.20;;;;;;5013254;28;20045;-57
2021/03/30 00:07:30;;;;;;;9.73;6.85;;;9.30;58.20;;;;;;5013923;28;20466;-56
2021/03/30 00:09:56;;;;;;;9.48;7.30;;;9.20;58.20;;;;;;5014030;28;20029;-57
2021/03/30 00:12:22;;;;;;;9.80;6.70;;;9.20;58.30;;;;;;5012505;28;20045;-54
2021/03/30 00:14:47;;;;;;;9.40;6.72;;;9.20;58.50;;;;;;5012049;28;20022;-56
2021/03/30 00:17:13;;;;;;;9.07;6.65;;;9.10;58.60;;;;;;5030932;28;20100;-57
2021/03/30 00:19:39;;;;;;;10.80;7.22;;;9.10;58.60;;;;;;5033610;28;20460;-56
2021/03/30 00:22:05;;;;;;;9.52;7.03;;;9.20;58.80;;;;;;5033673;28;20029;-55
2021/03/30 00:24:30;;;;;;;11.13;7.32;;;9.20;58.90;;;;;;5033517;28;20476;-55
2021/03/30 00:26:56;;;;;;;10.73;6.95;;;9.20;59.00;;;;;;5032894;28;20404;-57
2021/03/30 00:29:22;;;;;;;9.63;6.53;;;9.20;59.00;;;;;;5033629;28;20104;-55
2021/03/30 00:31:47;;;;;;;9.27;6.88;;;9.10;59.10;;;;;;5028761;28;20061;-55
2021/03/30 00:34:13;;;;;;;12.60;6.95;;;9.10;59.10;;;;;;5029907;28;20040;-57
2021/03/30 00:36:39;;;;;;;11.02;7.53;;;9.10;59.10;;;;;;5025591;28;20018;-56
2021/03/30 00:39:05;;;;;;;10.02;6.63;;;9.10;59.30;;;;;;5033429;28;20087;-58
2021/03/30 00:41:39;;;;;;;9.52;6.80;;;9.00;59.30;;;;;;5033573;28;20037;-57
2021/03/30 00:44:10;;;;;;;11.60;7.65;;;8.90;59.60;;;;;;5030850;28;20025;-57
2021/03/30 00:46:37;;;;;;;9.95;7.18;;;8.90;59.70;;;;;;5033488;28;20029;-58
2021/03/30 00:49:03;;;;;;;8.50;7.10;;;8.80;59.70;;;;;;5032003;28;20033;-57
2021/03/30 00:51:29;;;;;;;12.05;8.02;;;8.80;60.00;;;;;;5033487;28;20452;-56
2021/03/30 00:53:54;;;;;;;8.88;6.63;;;8.70;60.20;;;;;;5033244;28;20026;-54
2021/03/30 00:56:21;;;;;;;10.52;7.45;;;8.70;60.30;;;;;;5031005;28;20101;-57
2021/03/30 00:58:48;;;;;;;8.43;6.90;;;8.70;60.50;;;;;;5033252;28;20029;-58
2021/03/30 01:01:14;;;;;;;12.05;7.72;;;8.60;60.20;;;;;;5027378;28;20020;-56
2021/03/30 01:03:40;;;;;;;10.38;7.20;;;8.60;60.30;;;;;;5033269;28;20469;-58
2021/03/30 01:06:06;;;;;;;11.57;7.88;;;8.50;60.10;;;;;;5033336;28;20033;-58
2021/03/30 01:09:01;;;;;;;11.52;7.95;;;8.40;60.20;;;;;;5033882;28;20029;-56
2021/03/30 01:11:46;;;;;;;11.02;7.35;;;8.40;60.30;;;;;;5032539;28;20465;-56
2021/03/30 01:14:27;;;;;;;9.80;7.82;;;8.30;60.50;;;;;;5035705;28;20510;-54
2021/03/30 01:17:02;;;;;;;9.73;7.90;;;8.30;60.70;;;;;;5010611;28;20083;-55
2021/03/30 01:20:06;;;;;;;10.75;7.55;;;8.20;60.80;;;;;;5037079;28;20053;-57
2021/03/30 01:22:38;;;;;;;11.43;8.07;;;8.20;60.90;;;;;;5035493;28;20088;-57
2021/03/30 01:25:06;;;;;;;9.85;7.63;;;8.20;60.80;;;;;;5035777;28;20026;-56
2021/03/30 01:27:47;;;;;;;9.52;7.60;;;8.20;61.00;;;;;;5036738;28;20033;-57
2021/03/30 01:30:15;;;;;;;11.57;8.13;;;8.20;60.80;;;;;;5035779;28;20074;-57
2021/03/30 01:32:54;;;;;;;8.88;6.88;;;8.20;60.90;;;;;;5036568;28;20018;-58
2021/03/30 01:35:25;;;;;;;9.85;6.97;;;8.10;61.00;;;;;;5033824;28;20441;-57
2021/03/30 01:37:53;;;;;;;11.97;7.73;;;8.10;61.00;;;;;;5035804;28;20077;-56
2021/03/30 01:40:27;;;;;;;11.85;7.72;;;8.10;61.30;;;;;;5035062;28;20056;-58
2021/03/30 01:42:53;;;;;;;11.43;6.88;;;8.00;61.10;;;;;;5036490;28;20030;-56
2021/03/30 01:45:22;;;;;;;11.00;7.60;;;8.00;61.10;;;;;;5022260;28;20045;-58
2021/03/30 01:47:49;;;;;;;10.50;7.80;;;8.00;61.20;;;;;;5036316;28;20368;-57
2021/03/30 01:50:15;;;;;;;11.90;8.20;;;8.00;61.30;;;;;;5036087;28;20046;-57
2021/03/30 01:52:43;;;;;;;10.23;7.80;;;8.00;61.50;;;;;;5035448;28;20453;-58
2021/03/30 01:55:12;;;;;;;11.05;8.15;;;8.00;61.50;;;;;;5036258;28;20025;-56
2021/03/30 01:57:38;;;;;;;14.88;8.57;;;8.00;61.60;;;;;;5034171;28;20412;-57
2021/03/30 02:00:09;;;;;;;14.20;8.30;;;8.00;61.70;;;;;;5036172;28;20071;-54
2021/03/30 02:02:36;;;;;;;14.52;8.93;;;8.10;61.90;;;;;;5022134;28;20028;-56
2021/03/30 02:05:04;;;;;;;13.15;9.43;;;8.00;61.70;;;;;;5028522;28;20398;-53
2021/03/30 02:07:31;;;;;;;11.60;8.85;;;8.00;61.90;;;;;;5030498;28;20488;-57
2021/03/30 02:10:01;;;;;;;11.85;8.88;;;8.10;62.10;;;;;;5036277;28;20025;-56
2021/03/30 02:12:36;;;;;;;13.27;9.02;;;8.10;62.20;;;;;;5035623;28;20041;-55
2021/03/30 02:15:02;;;;;;;10.65;8.15;;;8.10;62.50;;;;;;5035972;28;20018;-57
2021/03/30 02:17:53;;;;;;;10.65;7.97;;;8.10;62.40;;;;;;5035980;28;20025;-57
2021/03/30 02:20:29;;;;;;;11.45;8.05;;;8.10;62.50;;;;;;5035928;28;20021;-57
2021/03/30 02:23:02;;;;;;;9.98;7.63;;;8.10;62.30;;;;;;5033116;28;20107;-57
2021/03/30 02:25:30;;;;;;;13.50;8.18;;;8.10;62.40;;;;;;5004197;28;20030;-55
2021/03/30 02:28:03;;;;;;;11.90;8.38;;;8.10;62.40;;;;;;5026563;28;20025;-55
2021/03/30 02:30:29;;;;;;;12.27;8.20;;;8.10;62.30;;;;;;5035553;28;20108;-56
2021/03/30 02:32:56;;;;;;;11.90;8.50;;;8.10;62.50;;;;;;5035349;28;20032;-57
2021/03/30 02:35:24;;;;;;;10.82;8.65;;;8.10;62.70;;;;;;5033141;28;20360;-56
2021/03/30 02:37:51;;;;;;;12.32;8.27;;;8.10;62.90;;;;;;5025231;28;20120;-57
2021/03/30 02:40:20;;;;;;;12.98;8.95;;;8.10;63.10;;;;;;5034524;28;20485;-55
2021/03/30 02:42:47;;;;;;;12.45;8.45;;;8.20;63.30;;;;;;5026768;28;20128;-56
2021/03/30 02:45:16;;;;;;;11.95;8.63;;;8.20;63.50;;;;;;5030174;28;20048;-57
2021/03/30 02:47:44;;;;;;;10.27;7.97;;;8.20;63.60;;;;;;5019356;28;20034;-58
2021/03/30 02:50:11;;;;;;;13.18;7.90;;;8.20;63.60;;;;;;5028836;28;20057;-58
2021/03/30 02:52:37;;;;;;;13.25;8.05;;;8.20;63.60;;;;;;5032325;28;20022;-57
2021/03/30 02:55:05;;;;;;;11.45;7.88;;;8.20;64.10;;;;;;5035255;28;20175;-54
2021/03/30 02:57:31;;;;;;;13.68;8.88;;;8.20;63.40;;;;;;5034801;28;20036;-54
2021/03/30 02:59:57;;;;;;;10.45;8.32;;;8.10;63.20;;;;;;5031586;28;20025;-57
2021/03/30 03:02:24;;;;;;;11.60;8.25;;;8.10;63.40;;;;;;5034835;28;20027;-56
2021/03/30 03:04:50;;;;;;;10.07;7.63;;;8.10;63.50;;;;;;5034959;28;20642;-57
2021/03/30 03:07:16;;;;;;;11.18;8.35;;;8.00;63.60;;;;;;5033325;28;20369;-57
2021/03/30 03:09:43;;;;;;;12.15;7.53;;;8.00;63.50;;;;;;5034652;28;20018;-56
2021/03/30 03:12:11;;;;;;;12.65;8.65;;;8.00;63.40;;;;;;5034611;28;20099;-57
2021/03/30 03:14:41;;;;;;;11.05;8.05;;;7.90;63.20;;;;;;5034740;28;20427;-57
2021/03/30 03:17:07;;;;;;;12.35;8.30;;;7.90;62.70;;;;;;5030485;28;20084;-57
2021/03/30 03:19:35;;;;;;;14.80;8.23;;;7.90;62.70;;;;;;5034570;28;20025;-57
2021/03/30 03:22:04;;;;;;;12.00;9.15;;;7.90;62.70;;;;;;5027342;28;20034;-58
2021/03/30 03:24:33;;;;;;;11.10;7.82;;;7.80;62.60;;;;;;5030964;28;20429;-56
2021/03/30 03:26:59;;;;;;;12.88;9.20;;;7.80;62.70;;;;;;5034475;28;20032;-55
2021/03/30 03:29:25;;;;;;;12.60;8.70;;;7.70;63.00;;;;;;5034493;28;20026;-53
2021/03/30 03:31:51;;;;;;;11.27;7.93;;;7.70;63.20;;;;;;5029880;28;21572;-56
2021/03/30 03:34:18;;;;;;;11.05;7.97;;;7.60;63.30;;;;;;5023221;28;20076;-56
2021/03/30 03:36:48;;;;;;;10.77;7.90;;;7.60;63.30;;;;;;5034238;28;20056;-56
2021/03/30 03:39:17;;;;;;;10.45;8.13;;;7.50;63.00;;;;;;5034064;28;20021;-56
2021/03/30 03:41:44;;;;;;;11.45;8.18;;;7.40;62.80;;;;;;5034253;28;20053;-57
2021/03/30 03:44:11;;;;;;;12.77;8.52;;;7.30;62.90;;;;;;5034172;28;20088;-57
2021/03/30 03:46:37;;;;;;;11.63;7.78;;;7.30;62.90;;;;;;5027091;28;20071;-57
2021/03/30 03:49:04;;;;;;;12.20;8.10;;;7.20;62.80;;;;;;5022241;28;20017;-56
2021/03/30 03:51:34;;;;;;;11.65;8.65;;;7.20;63.10;;;;;;5031854;28;20084;-56
2021/03/30 03:54:04;;;;;;;14.10;9.23;;;7.20;63.20;;;;;;5033067;28;20036;-55
2021/03/30 03:56:38;;;;;;;12.10;8.88;;;7.20;63.50;;;;;;5033220;28;20036;-52
2021/03/30 03:59:13;;;;;;;11.13;7.85;;;7.30;63.70;;;;;;5033762;28;20029;-57
2021/03/30 04:01:53;;;;;;;12.07;8.15;;;7.30;64.00;;;;;;5034132;28;20036;-57
2021/03/30 04:04:53;;;;;;;11.18;8.25;;;7.40;63.90;;;;;;5033797;28;20022;-57
2021/03/30 04:07:26;;;;;;;14.27;9.00;;;7.50;63.90;;;;;;5027385;28;20083;-57
2021/03/30 04:09:54;;;;;;;14.15;9.07;;;7.50;64.00;;;;;;5033651;28;20029;-57
2021/03/30 04:12:21;;;;;;;13.35;9.18;;;7.50;64.10;;;;;;5033658;28;20078;-56
2021/03/30 04:14:48;;;;;;;12.07;8.82;;;7.60;64.00;;;;;;5006411;28;20100;-55
2021/03/30 04:17:15;;;;;;;10.90;8.48;;;7.60;64.00;;;;;;5032006;28;20027;-56
2021/03/30 04:19:42;;;;;;;10.95;8.30;;;7.60;64.20;;;;;;5031982;28;20026;-57
2021/03/30 04:22:08;;;;;;;11.75;7.95;;;7.70;64.30;;;;;;5028738;28;20148;-56
2021/03/30 04:24:34;;;;;;;12.20;8.63;;;7.70;64.20;;;;;;5033278;28;20045;-57
2021/03/30 04:27:00;;;;;;;12.43;9.00;;;7.70;64.10;;;;;;5033109;28;20025;-57
2021/03/30 04:29:26;;;;;;;12.43;8.68;;;7.80;64.00;;;;;;5033477;28;20038;-57
2021/03/30 04:31:51;;;;;;;12.00;8.00;;;7.80;63.90;;;;;;5033232;28;20029;-56
2021/03/30 04:34:17;;;;;;;12.00;8.65;;;7.80;63.60;;;;;;5029742;28;20028;-55
2021/03/30 04:36:43;;;;;;;12.00;8.02;;;7.80;63.60;;;;;;5033378;28;20033;-55
2021/03/30 04:39:08;;;;;;;11.98;8.82;;;7.80;64.00;;;;;;5022567;28;20037;-53
2021/03/30 04:41:34;;;;;;;12.32;8.50;;;7.80;64.20;;;;;;5033477;28;20021;-57
2021/03/30 04:44:00;;;;;;;12.25;8.02;;;7.90;63.90;;;;;;5035344;28;20022;-56
2021/03/30 04:46:25;;;;;;;13.07;8.25;;;7.90;63.70;;;;;;5037371;28;20038;-53
2021/03/30 04:48:51;;;;;;;14.10;9.05;;;8.00;63.60;;;;;;5037323;28;20048;-57
2021/03/30 04:51:17;;;;;;;12.35;9.60;;;8.00;63.60;;;;;;5035538;28;20481;-56
2021/03/30 04:53:42;;;;;;;9.73;7.93;;;8.10;63.80;;;;;;5022696;28;20076;-55
2021/03/30 04:56:08;;;;;;;10.60;8.10;;;8.30;63.90;;;;;;5024456;28;20021;-57
2021/03/30 04:58:34;;;;;;;12.13;8.45;;;8.40;63.20;;;;;;5035828;28;20064;-55
2021/03/30 05:01:00;;;;;;;13.45;8.38;;;8.60;63.30;;;;;;5036430;28;20473;-57
2021/03/30 05:03:25;;;;;;;11.57;8.65;;;8.80;63.30;;;;;;5035943;28;20037;-56
2021/03/30 05:05:51;;;;;;;12.85;9.25;;;9.00;62.10;;;;;;5037058;28;20472;-58
2021/03/30 05:08:17;;;;;;;11.23;8.82;;;9.30;61.90;;;;;;5033243;28;20034;-57
2021/03/30 05:10:42;;;;;;;11.48;8.23;;;9.50;61.00;;;;;;5021154;28;20026;-55
2021/03/30 05:13:08;;;;;;;11.63;8.35;;;9.70;60.60;;;;;;5037020;28;20110;-57
2021/03/30 05:15:34;;;;;;;12.38;9.07;;;9.90;60.70;;;;;;5037013;28;20373;-58
2021/03/30 05:18:00;;;;;;;10.60;8.63;;;10.30;59.80;;;;;;5036752;28;20020;-53
2021/03/30 05:20:25;;;;;;;12.23;8.48;;;10.60;58.90;;;;;;5037229;28;20539;-55
2021/03/30 05:22:51;;;;;;;14.43;9.65;;;10.90;58.40;;;;;;5036693;28;20472;-57
2021/03/30 05:25:17;;;;;;;11.60;8.70;;;11.10;57.00;;;;;;5036390;28;20388;-58
2021/03/30 05:27:45;;;;;;;13.13;8.60;;;11.30;57.10;;;;;;5037079;28;20060;-57
2021/03/30 05:30:12;;;;;;;11.77;8.57;;;11.70;56.90;;;;;;5036590;28;20084;-55
2021/03/30 05:32:38;;;;;;;14.00;8.65;;;12.10;56.70;;;;;;5033512;28;20084;-57
2021/03/30 05:35:09;;;;;;;12.73;8.80;;;12.40;54.80;;;;;;5018460;28;20029;-55
2021/03/30 05:37:34;;;;;;;;;;;12.40;54.40;;;;;;5020851;28;20025;-53
2021/03/30 05:40:00;;;;;;;11.85;8.27;;;12.50;53.20;;;;;;5035010;28;19916;-55
2021/03/30 05:42:26;;;;;;;12.85;8.73;;;12.70;54.70;;;;;;5029599;28;20041;-53
2021/03/30 05:44:53;;;;;;;9.65;7.38;;;13.00;53.80;;;;;;5025178;28;20025;-56
2021/03/30 05:47:26;;;;;;;12.05;7.90;;;13.20;52.70;;;;;;5018664;28;20036;-57
2021/03/30 05:49:53;;;;;;;14.23;8.60;;;13.10;51.60;;;;;;5015203;28;20048;-56
2021/03/30 05:52:28;;;;;;;13.00;7.88;;;12.80;51.60;;;;;;5021737;28;20033;-55
2021/03/30 05:54:56;;;;;;;11.77;8.60;;;12.50;51.80;;;;;;5016059;28;20025;-57
2021/03/30 05:57:29;;;;;;;12.52;7.55;;;12.20;52.50;;;;;;5016954;28;20037;-57
2021/03/30 05:59:57;;;;;;;13.60;9.13;;;12.10;52.80;;;;;;5013826;28;20021;-55
2021/03/30 06:02:43;;;;;;;13.60;8.38;;;12.20;52.50;;;;;;5006528;28;20442;-54
2021/03/30 06:05:13;;;;;;;11.48;8.57;;;12.10;52.20;;;;;;5008271;28;20106;-56
2021/03/30 06:07:39;;;;;;;10.82;8.32;;;12.10;51.40;;;;;;5017560;28;20026;-56
2021/03/30 06:10:10;;;;;;;14.02;9.82;;;11.80;51.20;;;;;;5009946;28;20034;-58
2021/03/30 06:12:36;;;;;;;15.73;9.07;;;11.40;51.70;;;;;;5007685;28;20034;-57
2021/03/30 06:15:04;;;;;;;12.30;9.05;;;10.90;52.40;;;;;;5016079;28;20385;-57
2021/03/30 06:17:50;;;;;;;12.30;9.65;;;10.50;53.30;;;;;;5006006;28;20034;-58
2021/03/30 06:20:31;;;;;;;14.60;9.45;;;10.20;54.10;;;;;;5008479;28;20049;-57
2021/03/30 06:23:00;;;;;;;14.37;10.10;;;10.00;54.80;;;;;;5007215;28;20021;-57
2021/03/30 06:25:44;;;;;;;15.55;9.25;;;9.90;55.10;;;;;;5016185;28;20275;-56
2021/03/30 06:28:21;;;;;;;14.68;9.32;;;9.70;55.40;;;;;;5002341;28;20128;-58
2021/03/30 06:31:07;;;;;;;12.77;8.82;;;9.50;56.10;;;;;;5006028;28;20466;-58
2021/03/30 06:33:50;;;;;;;14.40;9.77;;;9.20;55.90;;;;;;5012167;28;20508;-58
2021/03/30 06:36:26;;;;;;;12.57;9.15;;;9.10;56.70;;;;;;5002178;28;20915;-57
2021/03/30 06:39:02;;;;;;;12.00;8.75;;;9.00;57.00;;;;;;5005073;28;20053;-57
2021/03/30 06:41:37;;;;;;;17.40;11.48;;;8.90;57.30;;;;;;5006963;28;20034;-58
2021/03/30 06:46:55;;;;;;;15.57;9.98;;;8.80;57.80;;;;;;5010142;28;20144;-57
2021/03/30 06:49:22;;;;;;;13.80;9.57;;;8.70;58.10;;;;;;5008872;28;20022;-57
2021/03/30 06:51:48;;;;;;;14.38;9.93;;;8.60;58.40;;;;;;5008795;28;20028;-57
2021/03/30 06:54:14;;;;;;;15.85;10.25;;;8.60;58.40;;;;;;4999620;28;20030;-57
2021/03/30 06:56:59;;;;;;;12.88;9.93;;;8.60;58.50;;;;;;5001639;28;20034;-57
2021/03/30 06:59:25;;;;;;;13.57;9.38;;;8.60;58.60;;;;;;4998256;28;20033;-58
2021/03/30 07:01:56;;;;;;;14.73;10.65;;;8.60;58.60;;;;;;5000614;28;20308;-56
2021/03/30 07:04:22;;;;;;;13.20;10.27;;;8.50;59.00;;;;;;4994968;28;20040;-58
2021/03/30 07:06:54;;;;;;;16.75;10.02;;;8.50;59.20;;;;;;5000767;28;20038;-57
2021/03/30 07:09:22;;;;;;;16.45;10.73;;;8.50;59.50;;;;;;5001703;28;20030;-57
2021/03/30 07:11:48;;;;;;;15.43;10.15;;;8.50;59.60;;;;;;5000366;28;20026;-58
2021/03/30 07:14:14;;;;;;;16.73;9.35;;;8.60;59.70;;;;;;4998839;28;20423;-57
2021/03/30 07:16:52;;;;;;;12.52;9.90;;;8.60;59.60;;;;;;4988402;28;20029;-56
2021/03/30 07:19:23;;;;;;;15.02;9.98;;;8.70;59.70;;;;;;4998599;28;20025;-57
2021/03/30 07:22:09;;;;;;;15.75;11.40;;;8.70;59.70;;;;;;5002531;28;20029;-58
2021/03/30 07:24:47;;;;;;;27.88;10.70;;;8.90;60.50;;;;;;5002476;28;20090;-57
2021/03/30 07:27:16;;;;;;;16.05;10.55;;;9.00;59.80;;;;;;5004959;28;20080;-57
2021/03/30 07:29:48;;;;;;;13.73;9.30;;;9.10;59.90;;;;;;5007003;28;20067;-58
2021/03/30 07:32:44;;;;;;;13.57;9.30;;;9.20;59.70;;;;;;5000955;28;20033;-58
2021/03/30 07:35:18;;;;;;;12.57;8.70;;;9.30;59.20;;;;;;5001804;28;20072;-58
2021/03/30 07:37:52;;;;;;;13.32;9.07;;;9.30;59.00;;;;;;5001114;28;20026;-58
2021/03/30 07:40:19;;;;;;;11.52;9.77;;;9.30;58.90;;;;;;5005360;28;20021;-58
2021/03/30 07:42:47;;;;;;;13.73;9.85;;;9.30;58.50;;;;;;5007040;28;20025;-58
2021/03/30 07:45:14;;;;;;;12.75;9.13;;;9.10;58.70;;;;;;5002120;28;20037;-57
2021/03/30 07:47:41;;;;;;;15.02;9.82;;;9.00;58.80;;;;;;5003224;28;20057;-57
2021/03/30 07:50:08;;;;;;;14.40;10.63;;;8.90;59.30;;;;;;5004188;28;20058;-58
2021/03/30 07:52:42;;;;;;;13.30;8.85;;;8.90;59.40;;;;;;5005244;28;20029;-58
2021/03/30 07:55:27;;;;;;;12.45;9.38;;;8.90;59.70;;;;;;5003001;28;20105;-59
2021/03/30 07:58:13;;;;;;;13.52;9.80;;;8.90;59.70;;;;;;5007077;28;20046;-58
2021/03/30 08:00:38;;;;;;;12.50;9.63;;;9.00;59.80;;;;;;4993391;28;20025;-58
2021/03/30 08:03:08;;;;;;;13.48;9.55;;;9.00;59.80;;;;;;5004458;28;20056;-59
2021/03/30 08:05:34;;;;;;;14.57;9.73;;;9.00;59.80;;;;;;5000794;28;20661;-58
2021/03/30 08:08:00;;;;;;;14.55;9.73;;;9.00;59.60;;;;;;4997399;28;20112;-58
2021/03/30 08:10:31;;;;;;;16.48;9.38;;;9.10;59.90;;;;;;4994390;28;20613;-58
2021/03/30 08:13:26;;;;;;;13.82;9.07;;;9.20;59.90;;;;;;4996751;28;20806;-58
2021/03/30 08:15:56;;;;;;;12.32;9.23;;;9.30;59.60;;;;;;4997896;28;20476;-58
2021/03/30 08:18:25;;;;;;;11.05;8.27;;;9.40;59.40;;;;;;4992305;28;20040;-59
2021/03/30 08:21:03;;;;;;;9.70;7.10;;;9.50;58.90;;;;;;5000275;28;20433;-58
2021/03/30 08:23:29;;;;;;;9.40;6.95;;;9.50;58.10;;;;;;4998058;28;20049;-59
2021/03/30 08:26:35;;;;;;;8.40;6.15;;;9.60;57.80;;;;;;4996974;28;20981;-59
2021/03/30 08:29:19;;;;;;;10.60;6.85;;;9.60;56.40;;;;;;4990883;28;20140;-58
2021/03/30 08:31:49;;;;;;;10.10;6.30;;;9.70;56.70;;;;;;4999851;28;20493;-56
2021/03/30 08:34:27;;;;;;;7.25;5.30;;;9.70;56.90;;;;;;4995470;28;20369;-58
2021/03/30 08:36:58;;;;;;;5.50;4.55;;;9.70;56.10;;;;;;4991076;28;20358;-58
2021/03/30 08:39:23;;;;;;;6.47;5.05;;;9.70;55.80;;;;;;4992420;28;20026;-58
2021/03/30 08:41:54;;;;;;;8.85;5.80;;;9.70;55.40;;;;;;4994245;28;20076;-57
2021/03/30 08:44:37;;;;;;;9.18;5.90;;;9.80;55.10;;;;;;4998987;28;20610;-58
2021/03/30 08:47:04;;;;;;;8.10;5.85;;;9.80;55.00;;;;;;4998366;28;20025;-59
2021/03/30 08:49:43;;;;;;;10.30;7.07;;;9.80;55.70;;;;;;4995883;28;20050;-59
2021/03/30 08:52:10;;;;;;;12.07;7.97;;;9.90;55.10;;;;;;4999160;28;20060;-56
2021/03/30 08:54:55;;;;;;;10.98;7.35;;;9.90;55.30;;;;;;4987292;28;20070;-57
2021/03/30 08:57:27;;;;;;;8.80;7.25;;;10.00;55.00;;;;;;4995985;28;20037;-59
2021/03/30 08:59:53;;;;;;;10.73;7.97;;;10.00;55.30;;;;;;4994296;28;20041;-55
2021/03/30 09:02:26;;;;;;;10.77;7.82;;;10.00;55.10;;;;;;4995244;28;20056;-58
2021/03/30 09:04:52;;;;;;;10.20;7.75;;;10.00;55.30;;;;;;4989549;28;20033;-59
2021/03/30 09:07:18;;;;;;;12.18;8.00;;;10.00;55.30;;;;;;4994669;28;20038;-57
2021/03/30 09:09:46;;;;;;;12.10;7.85;;;10.00;55.80;;;;;;4997260;28;20025;-55
2021/03/30 09:12:17;;;;;;;11.35;7.93;;;10.00;55.30;;;;;;4994335;28;20044;-58
2021/03/30 09:14:47;;;;;;;11.52;8.02;;;10.00;55.30;;;;;;5000557;28;20029;-57
2021/03/30 09:17:17;;;;;;;10.20;7.72;;;10.00;55.40;;;;;;4997323;28;20072;-58
2021/03/30 09:19:46;;;;;;;11.95;8.75;;;10.00;55.30;;;;;;4996484;28;20176;-57
2021/03/30 09:22:20;;;;;;;12.32;7.82;;;10.10;55.60;;;;;;5003432;28;20147;-57
2021/03/30 09:25:07;;;;;;;12.48;8.45;;;10.20;55.20;;;;;;4997084;28;20354;-57
2021/03/30 09:27:35;;;;;;;10.68;7.75;;;10.20;55.60;;;;;;4997263;28;20693;-57
2021/03/30 09:30:05;;;;;;;9.32;7.90;;;10.30;55.60;;;;;;4991113;28;20038;-57
2021/03/30 09:32:32;;;;;;;9.70;7.13;;;10.40;55.70;;;;;;4996714;28;20524;-57
2021/03/30 09:35:06;;;;;;;10.07;8.00;;;10.50;55.00;;;;;;5000333;28;20025;-59
2021/03/30 09:37:44;;;;;;;10.13;7.57;;;10.50;55.30;;;;;;4998471;28;20122;-57
2021/03/30 09:40:13;;;;;;;12.77;8.27;;;10.50;55.60;;;;;;4991543;28;20095;-59
2021/03/30 09:42:40;;;;;;;10.13;7.10;;;10.60;55.40;;;;;;4993946;28;20037;-59
2021/03/30 09:45:09;;;;;;;9.30;6.30;;;10.70;55.00;;;;;;4996198;28;20109;-59
2021/03/30 09:47:35;;;;;;;7.90;6.03;;;10.70;54.80;;;;;;5000287;28;20099;-59
2021/03/30 09:50:01;;;;;;;11.20;6.53;;;10.70;54.10;;;;;;5005861;28;20050;-59
2021/03/30 09:52:31;;;;;;;6.78;5.38;;;10.70;53.90;;;;;;5000504;28;20087;-57
2021/03/30 09:54:57;;;;;;;7.78;5.95;;;10.60;53.80;;;;;;5000707;28;20029;-58
2021/03/30 09:57:28;;;;;;;9.48;5.68;;;10.60;53.70;;;;;;4995506;28;20084;-58
2021/03/30 09:59:55;;;;;;;9.15;6.10;;;10.60;53.40;;;;;;5000083;28;20017;-58
2021/03/30 10:02:24;;;;;;;7.25;5.63;;;10.50;53.30;;;;;;4991774;28;20452;-58
2021/03/30 10:04:58;;;;;;;7.00;5.43;;;10.50;53.20;;;;;;4997796;28;20026;-58
2021/03/30 10:07:32;;;;;;;7.05;5.47;;;10.40;53.10;;;;;;4999440;28;20046;-58
2021/03/30 10:09:59;;;;;;;8.70;5.80;;;10.40;53.00;;;;;;4998649;28;20033;-56
2021/03/30 10:12:31;;;;;;;8.15;5.93;;;10.40;53.00;;;;;;5001575;28;20045;-57
2021/03/30 10:14:58;;;;;;;8.85;5.60;;;10.30;53.10;;;;;;5002288;28;20034;-57
2021/03/30 10:17:26;;;;;;;9.10;5.40;;;10.40;53.30;;;;;;4993903;28;20048;-58
2021/03/30 10:19:54;;;;;;;7.07;4.95;;;10.40;52.80;;;;;;4986811;28;20040;-57
2021/03/30 10:22:25;;;;;;;8.02;5.20;;;10.40;52.60;;;;;;4998373;28;20042;-57
2021/03/30 10:25:19;;;;;;;9.57;5.50;;;10.40;52.50;;;;;;5002507;28;20029;-57
2021/03/30 10:28:00;;;;;;;7.13;4.55;;;10.40;53.10;;;;;;5006294;28;20045;-57
2021/03/30 10:31:23;;;;;;;7.17;4.67;;;10.40;52.30;;;;;;5005884;28;20037;-56
2021/03/30 10:33:48;;;;;;;7.65;4.93;;;10.40;52.10;;;;;;4999339;28;20049;-57
2021/03/30 10:36:15;;;;;;;8.73;4.63;;;10.30;52.30;;;;;;4993710;28;20377;-57
2021/03/30 10:38:59;;;;;;;5.95;4.55;;;10.30;52.30;;;;;;4997944;28;20078;-58
2021/03/30 10:41:32;;;;;;;7.18;5.28;;;10.40;52.00;;;;;;4996626;28;20495;-58
2021/03/30 10:43:58;;;;;;;8.70;4.50;;;10.40;52.20;;;;;;4998962;28;20041;-58
2021/03/30 10:46:24;;;;;;;6.80;5.00;;;10.40;52.10;;;;;;4995581;28;20038;-58
2021/03/30 10:49:01;;;;;;;7.30;5.32;;;10.40;51.90;;;;;;5000298;28;20463;-57
2021/03/30 10:51:29;;;;;;;5.65;4.53;;;10.40;51.90;;;;;;5000523;28;20153;-58
2021/03/30 10:53:57;;;;;;;8.02;4.80;;;10.40;51.70;;;;;;5000842;28;20036;-57
2021/03/30 10:56:23;;;;;;;7.00;4.45;;;10.40;51.80;;;;;;5000934;28;20062;-58
2021/03/30 10:58:48;;;;;;;6.82;4.53;;;10.40;51.60;;;;;;5006198;28;20037;-58
2021/03/30 11:01:14;;;;;;;6.60;4.68;;;10.40;51.30;;;;;;4996011;28;20030;-58
2021/03/30 11:03:40;;;;;;;4.85;3.80;;;10.30;51.10;;;;;;4993808;28;20034;-58
2021/03/30 11:06:05;;;;;;;5.80;4.57;;;10.40;51.40;;;;;;5000221;28;20080;-57
2021/03/30 11:08:31;;;;;;;5.55;4.25;;;10.40;51.20;;;;;;4993157;28;20038;-55
2021/03/30 11:10:57;;;;;;;6.15;4.50;;;10.40;51.10;;;;;;4994262;28;20109;-57
2021/03/30 11:13:22;;;;;;;7.30;4.55;;;10.50;51.00;;;;;;5001856;28;20156;-59
2021/03/30 11:15:50;;;;;;;6.25;4.30;;;10.40;50.80;;;;;;5000023;28;20026;-58
2021/03/30 11:18:16;;;;;;;5.40;4.15;;;10.50;51.00;;;;;;4989218;28;20078;-59
2021/03/30 11:20:42;;;;;;;7.63;4.50;;;10.50;51.00;;;;;;4988328;28;20037;-57
2021/03/30 11:23:08;;;;;;;6.03;4.18;;;10.50;50.80;;;;;;4998544;28;20087;-58
2021/03/30 11:25:37;;;;;;;6.47;4.13;;;10.50;50.80;;;;;;4968834;28;20728;-58
2021/03/30 11:28:04;;;;;;;7.30;4.63;;;10.50;50.80;;;;;;4975055;28;20034;-57
2021/03/30 11:30:38;;;;;;;6.68;4.35;;;10.50;50.90;;;;;;4975539;28;20054;-57
2021/03/30 11:38:28;;;;;;;4.63;3.50;;;10.60;49.90;;;;;;4975676;28;20039;-57
2021/03/30 11:40:54;;;;;;;6.45;4.07;;;10.60;50.00;;;;;;4977796;28;20335;-59
2021/03/30 11:43:20;;;;;;;7.90;4.70;;;10.60;50.00;;;;;;4973848;28;20030;-58
2021/03/30 11:45:45;;;;;;;5.13;4.05;;;10.60;50.00;;;;;;4976434;28;20117;-58
2021/03/30 11:48:11;;;;;;;6.47;4.30;;;10.70;49.80;;;;;;4974385;28;20054;-58
2021/03/30 11:50:37;;;;;;;7.13;4.35;;;10.60;49.60;;;;;;4972375;28;20054;-56
2021/03/30 11:53:04;;;;;;;6.30;4.45;;;10.70;49.30;;;;;;4979783;28;20634;-58
2021/03/30 11:55:30;;;;;;;6.28;4.47;;;10.70;49.10;;;;;;4975434;28;20117;-57
2021/03/30 11:57:56;;;;;;;5.53;4.00;;;10.70;48.80;;;;;;4975703;28;20019;-56
2021/03/30 12:00:22;;;;;;;5.45;3.80;;;10.70;48.70;;;;;;4975243;28;20030;-58
2021/03/30 12:02:49;;;;;;;5.53;4.32;;;10.70;49.30;;;;;;4968945;28;20399;-58
2021/03/30 12:05:18;;;;;;;4.63;3.30;;;10.70;48.60;;;;;;4970109;28;20035;-58
2021/03/30 12:07:43;;;;;;;5.97;4.35;;;10.70;48.60;;;;;;4970843;28;20034;-57
2021/03/30 12:10:09;;;;;;;8.50;3.90;;;10.70;48.30;;;;;;4966946;28;20031;-58
2021/03/30 12:12:36;;;;;;;4.78;3.67;;;10.70;48.20;;;;;;4976890;28;20037;-58
2021/03/30 12:15:06;;;;;;;5.00;3.75;;;10.70;48.30;;;;;;4977163;28;20034;-58
2021/03/30 12:17:31;;;;;;;5.00;4.03;;;10.80;48.00;;;;;;4987565;28;20049;-58
2021/03/30 12:19:57;;;;;;;5.85;3.75;;;10.80;47.90;;;;;;4974971;28;20030;-58
2021/03/30 12:22:22;;;;;;;6.03;4.13;;;10.80;47.90;;;;;;4971347;28;20081;-57
2021/03/30 12:24:49;;;;;;;5.70;3.75;;;10.80;47.90;;;;;;4966356;28;20534;-58
2021/03/30 12:27:14;;;;;;;5.40;4.20;;;10.80;47.80;;;;;;4965460;28;20084;-58
2021/03/30 12:29:41;;;;;;;6.40;4.30;;;10.80;47.80;;;;;;4968823;28;20034;-58
2021/03/30 12:32:11;;;;;;;5.90;4.05;;;10.80;47.70;;;;;;4969455;28;20089;-58
2021/03/30 12:34:37;;;;;;;4.70;3.87;;;10.90;47.60;;;;;;4975701;28;20027;-58
2021/03/30 12:37:03;;;;;;;7.00;4.10;;;10.90;47.60;;;;;;4971463;28;21221;-58
2021/03/30 12:39:30;;;;;;;5.38;4.00;;;10.90;47.70;;;;;;4971222;28;20030;-58
2021/03/30 12:41:55;;;;;;;5.20;4.15;;;10.90;47.70;;;;;;4964843;28;20037;-58
2021/03/30 12:44:21;;;;;;;5.18;4.10;;;10.90;47.70;;;;;;4976066;28;20061;-57
2021/03/30 12:46:47;;;;;;;7.05;4.35;;;10.90;47.70;;;;;;4980073;28;20030;-58
2021/03/30 12:49:13;;;;;;;5.80;4.00;;;10.80;47.70;;;;;;4968403;28;20072;-58
2021/03/30 12:51:40;;;;;;;7.05;4.47;;;10.90;47.80;;;;;;4973522;28;20033;-57
2021/03/30 12:54:06;;;;;;;14.75;4.13;;;10.80;47.60;;;;;;4968617;28;20092;-58
2021/03/30 12:56:31;;;;;;;7.88;4.18;;;10.80;47.90;;;;;;4970571;28;20022;-57
2021/03/30 12:58:57;;;;;;;6.47;4.00;;;10.80;47.90;;;;;;4969449;28;20046;-58
2021/03/30 13:01:23;;;;;;;5.53;4.15;;;10.80;47.80;;;;;;4971734;28;20104;-57
2021/03/30 13:03:48;;;;;;;5.38;3.97;;;10.80;47.80;;;;;;4971209;28;20474;-57
2021/03/30 13:06:14;;;;;;;6.35;3.78;;;10.80;47.80;;;;;;4977997;28;20100;-58